Thousand Oaks, CA (91360)

6:42 AM PDT on April 19, 2015 (GMT -0700)
College Park | | Change Station
CLOSE
Current Station
Personal Weather Station
Location: Thousand Oaks, CA
Elevation: 741 ft
Nearby Weather Stations

Elev 741 ft 34.22 °N, 118.88 °W | Updated 5 seconds ago

Partly Cloudy
Partly Cloudy
44.9 °F
Feels Like 45 °F
N
1.0
Wind Variable Wind from ENE
Gusts 2.0 mph

Today
High -- | Low -- °F
--% Chance of Precip.
Yesterday
High -- | Low -- °F
Precip. -- in
6:19 AM 7:30 PM
New Moon, 1% visible
Pressure 29.96 in
Visibility 1.8 miles
Clouds Overcast 300 ft
Windchill 45 °F
Dew Point 41 °F
Humidity 85%
Rainfall 0.00 in
Snow Depth Not available.
UV 0 out of 12
Pollen 9.30 out of 12
Air Quality Not available.
Flu Activity Sporadic
SPECI KCMA 191328Z AUTO 00000KT 1 3/4SM BR OVC003 12/10 A2996 RMK AO2 T01170100

More Conditions Fewer Conditions

Pressure 29.96 in
Visibility 1.8 miles
Clouds Overcast 300 ft
Windchill 45 °F
Dew Point 41 °F
Humidity 85%
Rainfall 0.00 in
Snow Depth Not available.
UV 0 out of 12
Pollen 9.30 out of 12
Air Quality Not available.
Flu Activity Sporadic
SPECI KCMA 191328Z AUTO 00000KT 1 3/4SM BR OVC003 12/10 A2996 RMK AO2 T01170100

More Conditions Fewer Conditions

10-Day Weather Forecast

Almanac

Astronomy

Apr. 19, 2015 Rise Set
Actual Time
Civil Twilight
Nautical Twilight
Astronomical Twilight
Moon
Length of Visible Light
Length of Day
Tomorrow will be .
, % of the Moon is Illuminated

Today's Extremes

State Highs State Lows

Community

WunderPhotos

Upload Photos

1,814,795 photos uploaded!

WunderBlogs® & News

Nearby

Air Quality

  Air Quality AQ Index Pollutant
Not available.

Snow Depth

Station Depth Elevation

Earthquake Activity

City Distance Mag. Time & Date
Minimum magnitude displayed is 2.5.

Coastal Water Temperatures

Place Temperature

Stations

Nearby Weather Stations

Station Location Temp. Windchill Dew Point Humidity Wind Precip. Elev Updated Type